MMMD/MID METAR and TAF weather

Enter ICAO airport designator
Station Type Date Time Source
MMMD METAR 2019/12/12 08:46 UTC NOAA

MMMD 120846Z 07003KT 7SM BKN030 24/22 A3008 RMK 8/500


Station Type Date Time Source
MMMD Decoded METAR 2019/12/12 08:46 UTC NOAA

Merida / lic Manuel Crecencio, Mexico (MMMD) 20-56N 089-39W 11M
Dec 12, 2019 - 03:46 AM EST / 2019.12.12 0846 UTC
Wind: from the ENE (070 degrees) at 3 MPH (3 KT):0
Visibility: 7 mile(s):0
Sky conditions: mostly cloudy
Temperature: 75 F (24 C)
Dew Point: 71 F (22 C)
Relative Humidity: 88%
Pressure (altimeter): 30.08 in. Hg (1018 hPa)
ob: MMMD 120846Z 07003KT 7SM BKN030 24/22 A3008 RMK 8/500
cycle: 9

Station Type Date Time Source
MMMD TAF 2019/12/12 09:53 UTC NOAA

TAF
AMD MMMD 120846Z 1209/1312 05004KT P6SM BKN030 TX32/1222Z TN22/1212Z
TEMPO 1211/1215 5SM HZ BKN015
FM121800 02010KT P6SM BKN020 BKN250
FM130600 03005KT P6SM SCT020

Example: see airport list